createdAt,value
2023-04-01T00:01:18.306Z,102146.19
2023-04-01T00:03:47.324Z,102148.38
2023-04-01T00:06:17.621Z,102140.63
2023-04-01T00:08:46.609Z,102141.53
2023-04-01T00:11:15.847Z,102138.78
2023-04-01T00:13:44.266Z,102131.78
2023-04-01T00:16:21.125Z,102131.88
2023-04-01T00:18:51.800Z,102135.53
2023-04-01T00:21:22.424Z,102138.97
2023-04-01T00:23:52.513Z,102137.97
2023-04-01T00:26:23.172Z,102144.19
2023-04-01T00:28:52.336Z,102143.50
2023-04-01T00:31:21.201Z,102139.19
2023-04-01T00:33:49.870Z,102133.84
2023-04-01T00:36:21.548Z,102137.44
2023-04-01T00:38:49.994Z,102134.88
2023-04-01T00:41:20.085Z,102136.00
2023-04-01T00:43:52.035Z,102128.94
2023-04-01T00:46:21.283Z,102127.44
2023-04-01T00:48:57.138Z,102130.22
2023-04-01T00:51:31.789Z,102138.34
2023-04-01T00:54:03.557Z,102142.91
2023-04-01T00:56:53.173Z,102141.06
2023-04-01T00:59:26.807Z,102135.00
2023-04-01T01:01:55.053Z,102137.03
2023-04-01T01:04:32.715Z,102148.56
2023-04-01T01:07:32.976Z,102139.91
2023-04-01T01:10:01.241Z,102142.78
2023-04-01T01:12:35.423Z,102146.56
2023-04-01T01:15:38.647Z,102144.00
2023-04-01T01:18:18.908Z,102145.00
2023-04-01T01:21:08.570Z,102150.47
2023-04-01T01:23:48.509Z,102146.09
2023-04-01T01:26:39.066Z,102156.06
2023-04-01T01:29:44.517Z,102150.16
2023-04-01T01:32:16.938Z,102147.63
2023-04-01T01:35:06.486Z,102154.03
2023-04-01T01:37:35.512Z,102147.91
2023-04-01T01:40:10.978Z,102139.13
2023-04-01T01:42:42.747Z,102141.09
2023-04-01T01:45:14.538Z,102138.59
2023-04-01T01:47:44.179Z,102134.19
2023-04-01T01:50:13.828Z,102146.78
2023-04-01T01:52:42.070Z,102148.72
2023-04-01T01:55:32.023Z,102143.59
2023-04-01T01:58:14.188Z,102148.13
2023-04-01T02:00:47.274Z,102156.22
2023-04-01T02:03:17.513Z,102156.28
2023-04-01T02:05:47.291Z,102162.56
2023-04-01T02:08:20.534Z,102165.34
2023-04-01T02:11:01.973Z,102164.53
2023-04-01T02:14:00.152Z,102162.84
2023-04-01T02:16:40.920Z,102156.66
2023-04-01T02:19:11.073Z,102155.00
2023-04-01T02:21:40.718Z,102155.94
2023-04-01T02:24:14.250Z,102160.44
2023-04-01T02:26:43.069Z,102164.06
2023-04-01T02:29:14.100Z,102164.13
2023-04-01T02:31:44.417Z,102162.44
2023-04-01T02:34:13.148Z,102162.56
2023-04-01T02:36:41.701Z,102167.06
2023-04-01T02:39:10.592Z,102173.34
2023-04-01T02:41:45.501Z,102163.69
2023-04-01T02:44:15.400Z,102168.13
2023-04-01T02:46:44.231Z,102167.31
2023-04-01T02:49:12.482Z,102172.66
2023-04-01T02:51:40.713Z,102166.50
2023-04-01T02:54:08.952Z,102167.44
2023-04-01T02:56:37.233Z,102171.00
2023-04-01T02:59:05.452Z,102178.97
2023-04-01T03:01:33.765Z,102176.34
2023-04-01T03:04:02.010Z,102179.06
2023-04-01T03:06:30.280Z,102184.44
2023-04-01T03:08:58.842Z,102185.38
2023-04-01T03:11:28.040Z,102185.41
2023-04-01T03:13:56.381Z,102193.38
2023-04-01T03:16:24.866Z,102197.81
2023-04-01T03:18:54.405Z,102190.75
2023-04-01T03:21:24.830Z,102187.25
2023-04-01T03:23:53.730Z,102192.59
2023-04-01T03:26:23.311Z,102199.69
2023-04-01T03:28:51.735Z,102197.97
2023-04-01T03:31:21.581Z,102205.09
2023-04-01T03:33:50.717Z,102201.56
2023-04-01T03:36:19.908Z,102211.31
2023-04-01T03:38:48.116Z,102202.50
2023-04-01T03:41:18.235Z,102208.72
2023-04-01T03:43:47.118Z,102209.63
2023-04-01T03:46:20.704Z,102206.94
2023-04-01T03:48:48.960Z,102217.59
2023-04-01T03:51:17.295Z,102210.56
2023-04-01T03:53:45.823Z,102220.28
2023-04-01T03:56:14.139Z,102220.31
2023-04-01T03:58:42.555Z,102225.66
2023-04-01T04:01:22.687Z,102225.69
2023-04-01T04:03:52.151Z,102229.22
2023-04-01T04:06:21.547Z,102239.81
2023-04-01T04:08:49.796Z,102246.00
2023-04-01T04:11:18.655Z,102249.53
2023-04-01T04:13:47.068Z,102250.44
2023-04-01T04:16:15.793Z,102256.63
2023-04-01T04:18:44.342Z,102256.72
2023-04-01T04:21:16.683Z,102254.97
2023-04-01T04:23:45.916Z,102251.44
2023-04-01T04:26:17.225Z,102261.22
2023-04-01T04:28:45.710Z,102264.72
2023-04-01T04:31:20.412Z,102261.25
2023-04-01T04:33:48.315Z,102259.47
2023-04-01T04:36:17.042Z,102263.00
2023-04-01T04:38:45.698Z,102260.34
2023-04-01T04:41:16.152Z,102262.09
2023-04-01T04:43:50.186Z,102270.06
2023-04-01T04:46:18.413Z,102268.28
2023-04-01T04:48:46.649Z,102276.22
2023-04-01T04:51:19.007Z,102267.41
2023-04-01T04:53:49.584Z,102262.97
2023-04-01T04:56:23.633Z,102271.81
2023-04-01T04:58:51.943Z,102270.97
2023-04-01T05:01:20.867Z,102271.00
2023-04-01T05:03:49.142Z,102267.50
2023-04-01T05:06:18.386Z,102272.81
2023-04-01T05:08:47.652Z,102275.50
2023-04-01T05:11:19.211Z,102274.63
2023-04-01T05:13:48.380Z,102278.16
2023-04-01T05:16:20.262Z,102276.44
2023-04-01T05:18:49.431Z,102272.94
2023-04-01T05:21:18.208Z,102274.75
2023-04-01T05:23:46.737Z,102277.38
2023-04-01T05:26:16.652Z,102277.38
2023-04-01T05:28:45.339Z,102280.06
2023-04-01T05:31:13.610Z,102289.78
2023-04-01T05:33:42.084Z,102287.13
2023-04-01T05:36:13.076Z,102288.03
2023-04-01T05:38:42.266Z,102292.44
2023-04-01T05:41:10.975Z,102285.38
2023-04-01T05:43:39.563Z,102293.34
2023-04-01T05:46:08.143Z,102288.03
2023-04-01T05:48:36.954Z,102289.81
2023-04-01T05:51:05.617Z,102286.25
2023-04-01T05:53:33.994Z,102290.69
2023-04-01T05:56:06.160Z,102291.56
2023-04-01T05:58:34.484Z,102281.84
2023-04-01T06:01:11.392Z,102286.28
2023-04-01T06:03:42.435Z,102282.75
2023-04-01T06:06:28.278Z,102276.56
2023-04-01T06:09:00.052Z,102273.91
2023-04-01T06:11:38.733Z,102271.28
2023-04-01T06:14:51.428Z,102266.88
2023-04-01T06:17:22.963Z,102263.31
2023-04-01T06:20:07.286Z,102258.94
2023-04-01T06:23:03.161Z,102254.50
2023-04-01T06:25:43.983Z,102254.50
2023-04-01T06:28:39.271Z,102252.75
2023-04-01T06:31:34.218Z,102245.72
2023-04-01T06:34:39.548Z,102249.22
2023-04-01T06:37:17.284Z,102245.72
2023-04-01T06:40:00.060Z,102254.50
2023-04-01T06:42:55.825Z,102259.81
2023-04-01T06:45:39.100Z,102265.94
2023-04-01T06:48:36.838Z,102267.72
2023-04-01T06:51:22.631Z,102254.50
2023-04-01T06:54:03.434Z,102262.44
2023-04-01T06:56:34.258Z,102258.91
2023-04-01T06:59:30.035Z,102265.91
2023-04-01T07:02:22.188Z,102275.59
2023-04-01T07:04:54.935Z,102279.09
2023-04-01T07:07:44.115Z,102269.41
2023-04-01T07:10:19.174Z,102266.78
2023-04-01T07:12:55.280Z,102264.09
2023-04-01T07:15:37.448Z,102257.94
2023-04-01T07:18:13.337Z,102248.28
2023-04-01T07:20:41.873Z,102250.03
2023-04-01T07:23:29.245Z,102254.41
2023-04-01T07:26:25.464Z,102257.94
2023-04-01T07:28:55.624Z,102259.66
2023-04-01T07:31:26.620Z,102263.19
2023-04-01T07:34:11.447Z,102270.19
2023-04-01T07:36:47.460Z,102275.50
2023-04-01T07:39:29.445Z,102278.13
2023-04-01T07:42:32.813Z,102281.63
2023-04-01T07:45:28.701Z,102282.47
2023-04-01T07:48:33.590Z,102283.31
2023-04-01T07:51:13.345Z,102278.91
2023-04-01T07:54:10.459Z,102290.34
2023-04-01T07:56:41.500Z,102291.25
2023-04-01T07:59:35.874Z,102282.41
2023-04-01T08:02:12.698Z,102283.28
2023-04-01T08:05:01.424Z,102276.25
2023-04-01T08:07:40.116Z,102275.34
2023-04-01T08:10:37.166Z,102273.59
2023-04-01T08:13:13.796Z,102286.78
2023-04-01T08:16:00.257Z,102279.72
2023-04-01T08:19:03.554Z,102275.31
2023-04-01T08:21:44.503Z,102276.16
2023-04-01T08:24:52.003Z,102273.53
2023-04-01T08:27:31.306Z,102271.72
2023-04-01T08:30:25.059Z,102274.38
2023-04-01T08:33:02.391Z,102276.13
2023-04-01T08:36:08.468Z,102275.22
2023-04-01T08:38:46.907Z,102278.72
2023-04-01T08:41:36.229Z,102272.50
2023-04-01T08:44:21.413Z,102279.47
2023-04-01T08:46:59.205Z,102275.94
2023-04-01T08:49:45.818Z,102283.84
2023-04-01T08:52:34.080Z,102282.09
2023-04-01T08:55:25.040Z,102269.72
2023-04-01T08:58:08.054Z,102266.19
2023-04-01T09:00:39.043Z,102266.16
2023-04-01T09:03:28.370Z,102264.41
2023-04-01T09:05:59.425Z,102259.97
2023-04-01T09:08:59.325Z,102262.63
2023-04-01T09:12:02.836Z,102259.94
2023-04-01T09:15:05.342Z,102260.78
2023-04-01T09:17:54.298Z,102266.91
2023-04-01T09:20:47.800Z,102256.31
2023-04-01T09:23:39.644Z,102251.91
2023-04-01T09:26:14.113Z,102244.84
2023-04-01T09:28:55.283Z,102237.78
2023-04-01T09:31:35.136Z,102244.84
2023-04-01T09:34:41.304Z,102236.84
2023-04-01T09:37:12.432Z,102229.81
2023-04-01T09:39:49.430Z,102235.06
2023-04-01T09:42:28.871Z,102230.66
2023-04-01T09:45:11.119Z,102227.16
2023-04-01T09:47:48.204Z,102234.16
2023-04-01T09:50:22.340Z,102230.63
2023-04-01T09:52:59.307Z,102229.72
2023-04-01T09:55:47.605Z,102217.41
2023-04-01T09:58:43.939Z,102225.28
2023-04-01T10:01:27.301Z,102231.38
2023-04-01T10:04:32.433Z,102230.53
2023-04-01T10:07:24.969Z,102231.38
2023-04-01T10:10:14.460Z,102224.31
2023-04-01T10:12:59.858Z,102220.78
2023-04-01T10:15:52.931Z,102218.16
2023-04-01T10:18:52.076Z,102211.13
2023-04-01T10:21:44.488Z,102206.69
2023-04-01T10:24:42.129Z,102210.22
2023-04-01T10:27:46.741Z,102217.19
2023-04-01T10:31:09.118Z,102212.75
2023-04-01T10:33:58.855Z,102217.09
2023-04-01T10:36:47.894Z,102221.44
2023-04-01T10:39:18.928Z,102222.31
2023-04-01T10:42:17.692Z,102209.97
2023-04-01T10:44:51.805Z,102212.59
2023-04-01T10:47:59.981Z,102208.22
2023-04-01T10:51:03.826Z,102205.50
2023-04-01T10:53:51.765Z,102209.88
2023-04-01T10:56:56.407Z,102212.47
2023-04-01T11:00:03.076Z,102211.56
2023-04-01T11:03:08.231Z,102215.03
2023-04-01T11:06:10.012Z,102220.28
2023-04-01T11:09:11.900Z,102216.72
2023-04-01T11:11:55.361Z,102215.75
2023-04-01T11:14:41.579Z,102222.78
2023-04-01T11:17:34.290Z,102222.72
2023-04-01T11:20:45.477Z,102220.06
2023-04-01T11:23:31.951Z,102220.94
2023-04-01T11:26:23.907Z,102222.69
2023-04-01T11:29:10.662Z,102220.97
2023-04-01T11:32:13.294Z,102225.41
2023-04-01T11:34:41.416Z,102222.78
2023-04-01T11:37:31.826Z,102221.91
2023-04-01T11:40:21.100Z,102215.75
2023-04-01T11:42:55.208Z,102221.00
2023-04-01T11:45:30.603Z,102212.22
2023-04-01T11:48:35.907Z,102207.06
2023-04-01T11:51:28.601Z,102211.50
2023-04-01T11:54:27.422Z,102208.88
2023-04-01T11:57:27.789Z,102199.19
2023-04-01T12:00:17.537Z,102196.56
2023-04-01T12:03:12.515Z,102199.19
2023-04-01T12:05:46.913Z,102196.50
2023-04-01T12:08:45.409Z,102197.38
2023-04-01T12:11:37.042Z,102194.69
2023-04-01T12:14:32.476Z,102187.63
2023-04-01T12:17:23.181Z,102192.81
2023-04-01T12:20:01.948Z,102185.81
2023-04-01T12:22:33.882Z,102185.69
2023-04-01T12:25:38.527Z,102181.25
2023-04-01T12:28:43.849Z,102185.56
2023-04-01T12:31:40.442Z,102177.69
2023-04-01T12:34:30.959Z,102182.06
2023-04-01T12:37:30.220Z,102174.94
2023-04-01T12:39:58.369Z,102187.19
2023-04-01T12:42:46.963Z,102188.97
2023-04-01T12:45:31.743Z,102185.47
2023-04-01T12:48:38.446Z,102184.56
2023-04-01T12:51:09.593Z,102181.06
2023-04-01T12:53:55.212Z,102181.94
2023-04-01T12:56:53.574Z,102185.47
2023-04-01T12:59:30.674Z,102176.69
2023-04-01T13:02:35.869Z,102176.63
2023-04-01T13:05:18.650Z,102184.50
2023-04-01T13:08:09.076Z,102184.44
2023-04-01T13:11:01.678Z,102181.75
2023-04-01T13:13:54.418Z,102194.03
2023-04-01T13:16:31.728Z,102194.84
2023-04-01T13:19:31.864Z,102186.00
2023-04-01T13:22:11.720Z,102191.22
2023-04-01T13:24:42.729Z,102196.47
2023-04-01T13:27:13.796Z,102199.09
2023-04-01T13:30:11.133Z,102200.78
2023-04-01T13:32:57.096Z,102205.16
2023-04-01T13:35:46.626Z,102206.03
2023-04-01T13:38:45.727Z,102212.09
2023-04-01T13:41:51.637Z,102212.09
2023-04-01T13:44:33.163Z,102216.47
2023-04-01T13:47:37.582Z,102221.66
2023-04-01T13:50:40.798Z,102222.53
2023-04-01T13:53:11.777Z,102228.53
2023-04-01T13:56:07.578Z,102226.78
2023-04-01T13:58:54.065Z,102226.84
2023-04-01T14:01:43.123Z,102228.66
2023-04-01T14:04:26.820Z,102223.41
2023-04-01T14:07:18.105Z,102229.56
2023-04-01T14:09:58.143Z,102232.31
2023-04-01T14:12:41.988Z,102235.03
2023-04-01T14:15:25.215Z,102235.09
2023-04-01T14:18:11.340Z,102242.22
2023-04-01T14:20:53.774Z,102233.59
2023-04-01T14:23:53.921Z,102247.69
2023-04-01T14:26:43.985Z,102258.31
2023-04-01T14:29:33.155Z,102261.03
2023-04-01T14:32:42.732Z,102255.03
2023-04-01T14:35:14.009Z,102258.66
2023-04-01T14:38:00.400Z,102256.97
2023-04-01T14:41:00.862Z,102256.22
2023-04-01T14:43:57.752Z,102265.97
2023-04-01T14:46:45.757Z,102264.28
2023-04-01T14:49:40.065Z,102270.59
2023-04-01T14:52:12.795Z,102270.63
2023-04-01T14:54:45.684Z,102268.06
2023-04-01T14:57:25.715Z,102270.75
2023-04-01T14:59:55.978Z,102274.38
2023-04-01T15:02:32.895Z,102282.38
2023-04-01T15:05:36.001Z,102273.72
2023-04-01T15:08:34.883Z,102270.28
2023-04-01T15:11:26.378Z,102269.50
2023-04-01T15:14:09.504Z,102271.28
2023-04-01T15:17:28.587Z,102264.38
2023-04-01T15:20:25.951Z,102271.50
2023-04-01T15:23:09.043Z,102265.47
2023-04-01T15:26:04.837Z,102269.94
2023-04-01T15:28:47.296Z,102276.19
2023-04-01T15:31:30.405Z,102271.84
2023-04-01T15:34:07.717Z,102280.66
2023-04-01T15:36:54.165Z,102291.28
2023-04-01T15:39:37.296Z,102286.06
2023-04-01T15:42:31.317Z,102279.94
2023-04-01T15:45:27.779Z,102275.53
2023-04-01T15:48:14.617Z,102280.00
2023-04-01T15:50:55.414Z,102280.03
2023-04-01T15:53:34.275Z,102277.41
2023-04-01T15:56:32.739Z,102274.78
2023-04-01T15:59:23.908Z,102272.16
2023-04-01T16:02:19.009Z,102264.22
2023-04-01T16:05:11.669Z,102264.22
2023-04-01T16:08:17.041Z,102273.94
2023-04-01T16:11:23.426Z,102272.16
2023-04-01T16:14:07.200Z,102278.34
2023-04-01T16:16:56.185Z,102275.66
2023-04-01T16:19:53.421Z,102277.41
2023-04-01T16:22:56.307Z,102276.50
2023-04-01T16:25:44.028Z,102277.31
2023-04-01T16:28:18.183Z,102279.94
2023-04-01T16:30:52.764Z,102279.03
2023-04-01T16:33:42.314Z,102284.28
2023-04-01T16:36:13.661Z,102284.25
2023-04-01T16:39:25.309Z,102282.44
2023-04-01T16:42:08.530Z,102269.97
2023-04-01T16:45:03.164Z,102277.84
2023-04-01T16:47:55.270Z,102273.41
2023-04-01T16:50:41.719Z,102268.03
2023-04-01T16:53:16.724Z,102275.06
2023-04-01T16:56:07.112Z,102268.75
2023-04-01T16:58:58.821Z,102266.00
2023-04-01T17:01:52.333Z,102274.78
2023-04-01T17:04:29.560Z,102269.38
2023-04-01T17:07:21.592Z,102272.88
2023-04-01T17:10:22.224Z,102278.09
2023-04-01T17:13:25.664Z,102277.16
2023-04-01T17:16:01.502Z,102275.31
2023-04-01T17:19:06.936Z,102279.59
2023-04-01T17:21:37.997Z,102270.66
2023-04-01T17:24:18.030Z,102279.38
2023-04-01T17:26:57.145Z,102273.09
2023-04-01T17:29:31.568Z,102277.47
2023-04-01T17:32:30.574Z,102269.38
2023-04-01T17:35:05.969Z,102264.84
2023-04-01T17:37:56.940Z,102254.13
2023-04-01T17:41:09.316Z,102255.81
2023-04-01T17:43:40.654Z,102253.03
2023-04-01T17:46:14.807Z,102251.09
2023-04-01T17:49:04.202Z,102249.19
2023-04-01T17:51:35.348Z,102252.69
2023-04-01T17:54:37.884Z,102253.47
2023-04-01T17:57:24.821Z,102258.56
2023-04-01T18:00:14.553Z,102253.09
2023-04-01T18:02:57.279Z,102268.91
2023-04-01T18:05:25.528Z,102268.88
2023-04-01T18:07:59.375Z,102277.59
2023-04-01T18:10:51.506Z,102269.47
2023-04-01T18:13:39.202Z,102272.97
2023-04-01T18:16:16.199Z,102271.94
2023-04-01T18:19:07.814Z,102270.91
2023-04-01T18:21:45.905Z,102276.06
2023-04-01T18:24:18.615Z,102267.91
2023-04-01T18:27:13.152Z,102255.34
2023-04-01T18:30:13.696Z,102255.25
2023-04-01T18:33:11.741Z,102260.59
2023-04-01T18:35:43.052Z,102263.06
2023-04-01T18:38:18.309Z,102256.69
2023-04-01T18:41:20.855Z,102252.09
2023-04-01T18:44:14.340Z,102248.38
2023-04-01T18:46:54.944Z,102241.97
2023-04-01T18:49:45.614Z,102238.22
2023-04-01T18:52:34.911Z,102239.81
2023-04-01T18:55:03.057Z,102235.09
2023-04-01T18:58:08.527Z,102236.63
2023-04-01T19:00:46.928Z,102228.66
2023-04-01T19:03:34.008Z,102229.38
2023-04-01T19:06:11.293Z,102222.97
2023-04-01T19:08:43.244Z,102224.69
2023-04-01T19:11:51.516Z,102214.81
2023-04-01T19:14:31.641Z,102212.09
2023-04-01T19:17:39.263Z,102209.84
2023-04-01T19:20:48.479Z,102208.78
2023-04-01T19:23:41.374Z,102203.44
2023-04-01T19:26:36.487Z,102198.88
2023-04-01T19:29:15.805Z,102196.94
2023-04-01T19:32:01.796Z,102193.09
2023-04-01T19:35:09.421Z,102183.69
2023-04-01T19:38:01.735Z,102184.22
2023-04-01T19:40:40.919Z,102176.84
2023-04-01T19:43:17.686Z,102182.63
2023-04-01T19:45:53.629Z,102179.69
2023-04-01T19:48:46.968Z,102174.94
2023-04-01T19:51:27.246Z,102173.84
2023-04-01T19:53:56.192Z,102167.44
2023-04-01T19:56:50.650Z,102159.41
2023-04-01T19:59:25.978Z,102165.59
2023-04-01T20:02:34.681Z,102158.19
2023-04-01T20:05:21.244Z,102150.72
2023-04-01T20:07:58.923Z,102147.78
2023-04-01T20:10:45.084Z,102149.78
2023-04-01T20:13:23.525Z,102148.56
2023-04-01T20:16:03.451Z,102156.25
2023-04-01T20:19:09.424Z,102145.41
2023-04-01T20:21:45.779Z,102139.91
2023-04-01T20:24:16.865Z,102143.44
2023-04-01T20:27:17.383Z,102134.69
2023-04-01T20:30:22.773Z,102134.78
2023-04-01T20:33:45.437Z,102135.94
2023-04-01T20:36:23.999Z,102139.56
2023-04-01T20:39:10.781Z,102127.03
2023-04-01T20:41:48.205Z,102129.28
2023-04-01T20:44:33.568Z,102134.44
2023-04-01T20:47:19.780Z,102123.38
2023-04-01T20:50:08.877Z,102130.84
2023-04-01T20:53:04.432Z,102116.56
2023-04-01T20:55:57.462Z,102114.44
2023-04-01T20:58:45.836Z,102120.94
2023-04-01T21:01:36.844Z,102111.72
2023-04-01T21:04:32.046Z,102110.63
2023-04-01T21:07:13.147Z,102115.63
2023-04-01T21:10:10.121Z,102110.03
2023-04-01T21:12:50.338Z,102108.34
2023-04-01T21:15:24.724Z,102102.91
2023-04-01T21:18:30.671Z,102102.09
2023-04-01T21:21:40.251Z,102086.09
2023-04-01T21:24:46.577Z,102090.44
2023-04-01T21:27:41.381Z,102089.44
2023-04-01T21:30:46.465Z,102081.78
2023-04-01T21:33:17.541Z,102083.31
2023-04-01T21:36:15.824Z,102085.72
2023-04-01T21:39:09.397Z,102080.75
2023-04-01T21:42:01.585Z,102075.97
2023-04-01T21:44:57.589Z,102072.91
2023-04-01T21:48:02.982Z,102067.84
2023-04-01T21:50:44.389Z,102066.47
2023-04-01T21:54:01.055Z,102061.78
2023-04-01T21:56:29.235Z,102062.28
2023-04-01T21:59:23.354Z,102054.97
2023-04-01T22:02:22.374Z,102053.41
2023-04-01T22:05:09.388Z,102053.50
2023-04-01T22:08:09.476Z,102052.09
2023-04-01T22:10:47.840Z,102054.16
2023-04-01T22:13:21.088Z,102052.44
2023-04-01T22:16:11.245Z,102046.19
2023-04-01T22:19:02.326Z,102048.75
2023-04-01T22:21:53.692Z,102044.47
2023-04-01T22:24:50.885Z,102041.09
2023-04-01T22:27:36.703Z,102041.22
2023-04-01T22:30:27.827Z,102042.66
2023-04-01T22:33:11.456Z,102028.25
2023-04-01T22:36:14.803Z,102024.66
2023-04-01T22:39:24.470Z,102027.06
2023-04-01T22:41:58.804Z,102023.53
2023-04-01T22:44:45.924Z,102017.09
2023-04-01T22:47:22.506Z,102020.69
2023-04-01T22:49:56.913Z,102012.53
2023-04-01T22:52:24.699Z,102009.53
2023-04-01T22:54:57.530Z,102008.28
2023-04-01T22:57:44.081Z,102021.59
2023-04-01T23:00:33.639Z,102015.88
2023-04-01T23:03:17.890Z,102008.88
2023-04-01T23:05:54.838Z,102006.31
2023-04-01T23:08:45.269Z,102004.94
2023-04-01T23:11:41.899Z,102013.91
2023-04-01T23:14:35.713Z,102006.28
2023-04-01T23:17:37.573Z,102002.28
2023-04-01T23:20:51.313Z,102001.25
2023-04-01T23:23:30.697Z,101990.78
2023-04-01T23:26:13.158Z,101990.34
2023-04-01T23:28:50.039Z,101997.69
2023-04-01T23:31:36.841Z,102000.78
2023-04-01T23:34:15.959Z,101991.91
2023-04-01T23:36:54.134Z,101992.00
2023-04-01T23:39:30.663Z,101983.84
2023-04-01T23:42:16.439Z,101991.03
2023-04-01T23:44:46.002Z,101991.91
2023-04-01T23:47:34.972Z,101983.13
2023-04-01T23:50:13.641Z,101986.66
2023-04-01T23:52:46.159Z,101977.59
2023-04-01T23:55:27.178Z,101983.47
2023-04-01T23:58:18.594Z,101984.09
